Time;durP1;ratioP1;P1;durP2;ratioP2;P2;SDS_P1;SDS_P2;PMS_P1;PMS_P2;Temp;Humidity;BMP_temperature;BMP_pressure;BME280_temperature;BME280_humidity;BME280_pressure;Samples;Min_cycle;Max_cycle;Signal;HPM_P1;HPM_P2
2022/05/06 00:01:34;;;;;;;59.85;41.22;;;15.70;99.90;;;;;;4964248;28;20039;-68
2022/05/06 00:03:59;;;;;;;68.43;45.13;;;15.60;99.90;;;;;;4963758;28;20080;-68
2022/05/06 00:06:29;;;;;;;60.08;39.65;;;15.60;99.90;;;;;;4960864;28;20106;-68
2022/05/06 00:08:55;;;;;;;59.83;39.58;;;15.60;99.90;;;;;;4962494;28;20062;-67
2022/05/06 00:11:20;;;;;;;59.35;39.03;;;15.60;99.90;;;;;;4963975;28;20484;-68
2022/05/06 00:13:46;;;;;;;61.78;39.65;;;15.60;99.90;;;;;;4963781;28;20130;-68
2022/05/06 00:16:11;;;;;;;56.75;39.83;;;15.50;99.90;;;;;;4964953;28;20027;-68
2022/05/06 00:18:37;;;;;;;57.03;38.67;;;15.50;99.90;;;;;;4959258;28;20053;-68
2022/05/06 00:21:03;;;;;;;58.83;38.65;;;15.50;99.90;;;;;;4962610;28;20106;-67
2022/05/06 00:23:28;;;;;;;56.20;38.60;;;15.50;99.90;;;;;;4963650;28;20057;-68
2022/05/06 00:25:55;;;;;;;60.38;40.20;;;15.50;99.90;;;;;;4964574;28;20027;-68
2022/05/06 00:28:21;;;;;;;61.30;39.20;;;15.40;99.90;;;;;;4966319;28;20019;-68
2022/05/06 00:30:47;;;;;;;59.10;38.63;;;15.40;99.90;;;;;;4966292;28;20521;-68
2022/05/06 00:33:13;;;;;;;59.22;41.35;;;15.40;99.90;;;;;;4963665;28;20022;-68
2022/05/06 00:35:41;;;;;;;56.15;38.58;;;15.40;99.90;;;;;;4962418;28;20027;-67
2022/05/06 00:38:06;;;;;;;58.53;39.35;;;15.30;99.90;;;;;;4963119;28;20015;-68
2022/05/06 00:40:32;;;;;;;61.13;39.47;;;15.30;99.90;;;;;;4966729;28;20398;-67
2022/05/06 00:42:58;;;;;;;61.22;39.67;;;15.30;99.90;;;;;;4962014;28;20030;-68
2022/05/06 00:45:33;;;;;;;60.97;41.22;;;15.30;99.90;;;;;;4962123;28;20046;-68
2022/05/06 00:47:59;;;;;;;60.35;41.63;;;15.20;99.90;;;;;;4958590;28;20102;-68
2022/05/06 00:50:24;;;;;;;60.67;40.08;;;15.20;99.90;;;;;;4965368;28;20111;-68
2022/05/06 00:52:50;;;;;;;58.92;40.30;;;15.20;99.90;;;;;;4968244;28;20367;-68
2022/05/06 00:55:16;;;;;;;57.55;38.78;;;15.20;99.90;;;;;;4967727;28;20058;-67
2022/05/06 00:57:42;;;;;;;55.60;38.05;;;15.20;99.90;;;;;;4970394;28;20023;-67
2022/05/06 01:00:20;;;;;;;60.13;39.70;;;15.10;99.90;;;;;;4969452;28;20034;-68
2022/05/06 01:02:47;;;;;;;60.85;40.72;;;15.00;99.90;;;;;;4967859;28;20027;-67
2022/05/06 01:05:13;;;;;;;60.42;39.53;;;15.10;99.90;;;;;;4962791;28;20039;-67
2022/05/06 01:07:39;;;;;;;61.00;39.58;;;15.10;99.90;;;;;;4967914;28;20383;-68
2022/05/06 01:10:06;;;;;;;65.43;40.33;;;15.00;99.90;;;;;;4959054;28;20027;-68
2022/05/06 01:12:33;;;;;;;58.40;38.95;;;14.90;99.90;;;;;;4961637;28;20037;-67
2022/05/06 01:14:59;;;;;;;62.90;40.03;;;14.90;99.90;;;;;;4966886;28;20113;-67
2022/05/06 01:17:24;;;;;;;61.55;39.08;;;14.80;99.90;;;;;;4967728;28;20117;-67
2022/05/06 01:19:50;;;;;;;62.85;39.92;;;14.80;99.90;;;;;;4963778;28;20046;-68
2022/05/06 01:22:17;;;;;;;61.47;39.00;;;14.80;99.90;;;;;;4972229;28;20039;-67
2022/05/06 01:24:44;;;;;;;61.47;40.03;;;14.70;99.90;;;;;;4968745;28;20094;-67
2022/05/06 01:27:17;;;;;;;56.92;38.38;;;14.50;99.90;;;;;;4970974;28;20485;-67
2022/05/06 01:29:45;;;;;;;57.67;38.55;;;14.60;99.90;;;;;;4968925;28;20102;-68
2022/05/06 01:32:12;;;;;;;61.70;41.03;;;14.60;99.90;;;;;;4968329;28;20026;-68
2022/05/06 01:34:40;;;;;;;64.13;41.33;;;14.60;99.90;;;;;;4968909;28;20452;-67
2022/05/06 01:37:08;;;;;;;65.43;40.55;;;14.70;99.90;;;;;;4966913;28;20035;-67
2022/05/06 01:39:35;;;;;;;60.72;39.15;;;14.60;99.90;;;;;;4966645;28;20046;-68
2022/05/06 01:42:08;;;;;;;63.53;41.70;;;14.60;99.90;;;;;;4966301;28;20390;-68
2022/05/06 01:44:43;;;;;;;59.13;37.63;;;14.60;99.90;;;;;;4964863;28;20022;-67
2022/05/06 01:47:16;;;;;;;61.60;37.40;;;14.50;99.90;;;;;;4965160;28;20031;-67
2022/05/06 01:49:43;;;;;;;66.10;39.08;;;14.50;99.90;;;;;;4960640;28;20035;-67
2022/05/06 01:52:15;;;;;;;58.38;37.35;;;14.50;99.90;;;;;;4967418;28;20105;-68
2022/05/06 01:54:41;;;;;;;61.78;38.47;;;14.50;99.90;;;;;;4962268;28;20026;-67
2022/05/06 01:57:07;;;;;;;60.08;37.80;;;14.40;99.90;;;;;;4960228;28;20467;-67
2022/05/06 01:59:32;;;;;;;61.05;37.33;;;14.40;99.90;;;;;;4965294;28;20540;-68
2022/05/06 02:01:58;;;;;;;61.85;37.97;;;14.40;99.90;;;;;;4964919;28;20045;-67
2022/05/06 02:07:07;;;;;;;56.00;37.50;;;14.40;99.90;;;;;;4967683;28;20041;-67
2022/05/06 02:09:33;;;;;;;58.60;36.83;;;14.30;99.90;;;;;;4966353;28;20031;-68
2022/05/06 02:11:59;;;;;;;59.70;38.15;;;14.30;99.90;;;;;;4962985;28;20077;-68
2022/05/06 02:14:24;;;;;;;60.38;39.00;;;14.30;99.90;;;;;;4969498;28;20039;-68
2022/05/06 02:16:50;;;;;;;60.97;37.75;;;14.20;99.90;;;;;;4967901;28;20026;-68
2022/05/06 02:19:16;;;;;;;66.25;41.63;;;14.20;99.90;;;;;;4969404;28;20033;-68
2022/05/06 02:21:41;;;;;;;56.97;35.70;;;14.20;99.90;;;;;;4965112;28;20073;-67
2022/05/06 02:24:07;;;;;;;63.28;37.40;;;14.10;99.90;;;;;;4967368;28;20023;-67
2022/05/06 02:26:33;;;;;;;55.38;35.97;;;14.10;99.90;;;;;;4966612;28;20160;-68
2022/05/06 02:28:58;;;;;;;57.05;35.75;;;14.10;99.90;;;;;;4966688;28;20093;-67
2022/05/06 02:34:15;;;;;;;56.60;35.58;;;14.10;99.90;;;;;;4968422;28;20034;-68
2022/05/06 02:36:41;;;;;;;57.92;35.22;;;14.00;99.90;;;;;;4968247;28;20019;-68
2022/05/06 02:39:06;;;;;;;57.35;35.80;;;13.90;99.90;;;;;;4966455;28;20034;-68
2022/05/06 02:41:32;;;;;;;54.78;34.47;;;13.90;99.90;;;;;;4965890;28;20039;-68
2022/05/06 02:43:57;;;;;;;54.03;34.58;;;13.90;99.90;;;;;;4966447;28;20038;-68
2022/05/06 02:46:24;;;;;;;55.95;34.42;;;13.90;99.90;;;;;;4966276;28;20035;-68
2022/05/06 02:48:50;;;;;;;57.28;35.55;;;13.90;99.90;;;;;;4964674;28;20018;-67
2022/05/06 02:51:16;;;;;;;67.72;38.85;;;14.00;99.90;;;;;;4968671;28;20030;-68
2022/05/06 02:53:41;;;;;;;59.28;35.92;;;14.00;99.90;;;;;;4966817;28;20026;-68
2022/05/06 02:56:07;;;;;;;61.60;36.15;;;13.90;99.90;;;;;;4965991;28;20033;-67
2022/05/06 02:58:32;;;;;;;62.55;38.30;;;13.90;99.90;;;;;;4965163;28;20026;-67
2022/05/06 03:00:58;;;;;;;65.90;37.08;;;13.90;99.90;;;;;;4961116;28;20043;-67
2022/05/06 03:03:23;;;;;;;55.25;35.10;;;13.80;99.90;;;;;;4967671;28;20390;-67
2022/05/06 03:05:49;;;;;;;60.17;34.33;;;13.80;99.90;;;;;;4963884;28;20039;-69
2022/05/06 03:08:14;;;;;;;61.72;35.67;;;13.80;99.90;;;;;;4967050;28;20038;-69
2022/05/06 03:10:40;;;;;;;52.08;33.35;;;13.80;99.90;;;;;;4966345;28;20029;-67
2022/05/06 03:13:07;;;;;;;52.85;33.22;;;13.80;99.90;;;;;;4964107;28;20038;-67
2022/05/06 03:15:32;;;;;;;55.53;32.38;;;13.80;99.90;;;;;;4962125;28;20106;-70
2022/05/06 03:17:58;;;;;;;48.35;30.17;;;13.80;99.90;;;;;;4962622;28;20110;-69
2022/05/06 03:20:24;;;;;;;45.50;29.88;;;13.70;99.90;;;;;;4967543;28;20039;-69
2022/05/06 03:22:50;;;;;;;47.58;30.65;;;13.70;99.90;;;;;;4967700;28;20031;-68
2022/05/06 03:25:16;;;;;;;47.88;30.98;;;13.70;99.90;;;;;;4965637;28;20033;-68
2022/05/06 03:28:03;;;;;;;49.97;28.65;;;13.70;99.90;;;;;;4965432;28;20031;-69
2022/05/06 03:30:37;;;;;;;46.75;29.85;;;13.60;99.90;;;;;;4962404;28;20023;-69
2022/05/06 03:33:03;;;;;;;45.03;28.77;;;13.60;99.90;;;;;;4964414;28;20042;-68
2022/05/06 03:35:32;;;;;;;40.97;28.70;;;13.70;99.90;;;;;;4967298;28;20161;-69
2022/05/06 03:37:57;;;;;;;48.35;31.42;;;13.60;99.90;;;;;;4965278;28;20037;-69
2022/05/06 03:40:23;;;;;;;48.67;31.00;;;13.70;99.90;;;;;;4965709;28;20460;-68
2022/05/06 03:42:49;;;;;;;45.95;31.08;;;13.70;99.90;;;;;;4960121;28;20564;-69
2022/05/06 03:45:14;;;;;;;51.22;32.95;;;13.70;99.90;;;;;;4966031;28;20102;-68
2022/05/06 03:47:40;;;;;;;47.75;31.08;;;13.70;99.90;;;;;;4964658;28;20035;-69
2022/05/06 03:52:51;;;;;;;51.20;30.17;;;13.60;99.90;;;;;;4965148;28;20092;-68
2022/05/06 03:55:18;;;;;;;47.40;30.73;;;13.60;99.90;;;;;;4963930;28;20418;-69
2022/05/06 03:57:44;;;;;;;48.85;31.67;;;13.50;99.90;;;;;;4961762;28;20019;-68
2022/05/06 04:00:11;;;;;;;52.33;31.67;;;13.50;99.90;;;;;;4959064;28;20027;-69
2022/05/06 04:02:37;;;;;;;59.38;32.03;;;13.50;99.90;;;;;;4961785;28;20046;-69
2022/05/06 04:05:04;;;;;;;50.47;31.38;;;13.50;99.90;;;;;;4962684;28;20019;-68
2022/05/06 04:07:30;;;;;;;50.95;32.30;;;13.50;99.90;;;;;;4965193;28;20109;-69
2022/05/06 04:09:56;;;;;;;53.85;32.05;;;13.50;99.90;;;;;;4960064;28;20103;-69
2022/05/06 04:12:23;;;;;;;48.40;30.70;;;13.60;99.90;;;;;;4964629;28;20439;-68
2022/05/06 04:14:49;;;;;;;61.67;31.52;;;13.60;99.90;;;;;;4964667;28;20023;-69
2022/05/06 04:17:15;;;;;;;50.78;30.98;;;13.60;99.90;;;;;;4965220;28;20038;-68
2022/05/06 04:23:28;;;;;;;50.42;33.33;;;13.50;99.90;;;;;;4967913;28;20034;-69
2022/05/06 04:25:15;;;;;;;51.80;32.42;;;13.60;99.90;;;;;;4965792;28;20034;-69
2022/05/06 04:27:41;;;;;;;54.38;32.30;;;13.60;99.90;;;;;;4967049;28;20017;-69
2022/05/06 04:30:07;;;;;;;49.33;29.95;;;13.60;99.90;;;;;;4967920;28;20498;-69
2022/05/06 04:32:33;;;;;;;48.45;29.48;;;13.60;99.90;;;;;;4960547;28;20019;-67
2022/05/06 04:35:00;;;;;;;49.75;27.95;;;13.60;99.90;;;;;;4963846;28;20038;-69
2022/05/06 04:37:26;;;;;;;56.50;30.52;;;13.60;99.90;;;;;;4966391;28;20026;-69
2022/05/06 04:39:51;;;;;;;47.92;28.77;;;13.60;99.90;;;;;;4969168;28;20030;-69
2022/05/06 04:42:18;;;;;;;49.20;30.08;;;13.60;99.90;;;;;;4965210;28;20039;-69
2022/05/06 04:44:44;;;;;;;51.58;30.48;;;13.60;99.90;;;;;;4963303;28;20019;-68
2022/05/06 04:47:10;;;;;;;51.90;30.50;;;13.60;99.90;;;;;;4963835;28;20069;-69
2022/05/06 04:49:35;;;;;;;49.95;29.77;;;13.70;99.90;;;;;;4968795;28;20022;-69
2022/05/06 04:52:01;;;;;;;55.35;30.75;;;13.70;99.90;;;;;;4968076;28;20024;-69
2022/05/06 04:54:26;;;;;;;46.80;28.17;;;13.60;99.90;;;;;;4968057;28;20019;-69
2022/05/06 04:56:53;;;;;;;55.15;31.38;;;13.60;99.90;;;;;;4962428;28;20077;-69
2022/05/06 04:59:22;;;;;;;57.60;28.85;;;13.60;99.90;;;;;;4966236;28;20019;-69
2022/05/06 05:01:48;;;;;;;48.50;28.95;;;13.40;99.90;;;;;;4965874;28;20027;-71
2022/05/06 05:04:13;;;;;;;50.30;30.23;;;13.50;99.90;;;;;;4967762;28;20042;-71
2022/05/06 05:06:39;;;;;;;45.42;29.05;;;13.50;99.90;;;;;;4966875;28;20030;-71
2022/05/06 05:09:05;;;;;;;45.38;28.35;;;13.50;99.90;;;;;;4963911;28;20011;-71
2022/05/06 05:11:34;;;;;;;38.25;24.60;;;13.50;99.90;;;;;;4964569;28;20038;-70
2022/05/06 05:14:01;;;;;;;41.55;26.08;;;13.40;99.90;;;;;;4964431;28;20035;-71
2022/05/06 05:16:27;;;;;;;45.10;28.30;;;13.50;99.90;;;;;;4967098;28;20057;-71
2022/05/06 05:18:53;;;;;;;47.05;29.10;;;13.50;99.90;;;;;;4966349;28;20035;-71
2022/05/06 05:21:19;;;;;;;45.00;28.35;;;13.60;99.90;;;;;;4967724;28;20084;-70
2022/05/06 05:23:45;;;;;;;40.67;26.63;;;13.50;99.90;;;;;;4965090;28;20027;-70
2022/05/06 05:26:11;;;;;;;47.13;28.85;;;13.50;99.90;;;;;;4966571;28;20509;-69
2022/05/06 05:28:37;;;;;;;89.45;30.70;;;13.60;99.90;;;;;;4965501;28;20046;-70
2022/05/06 05:31:03;;;;;;;49.80;28.35;;;13.60;99.90;;;;;;4962820;28;20026;-70
2022/05/06 05:33:28;;;;;;;52.15;28.23;;;13.60;99.90;;;;;;4961435;28;20479;-70
2022/05/06 05:35:54;;;;;;;46.67;28.88;;;13.50;99.90;;;;;;4965904;28;20033;-69
2022/05/06 05:38:20;;;;;;;50.03;28.83;;;13.50;99.90;;;;;;4962448;28;20024;-69
2022/05/06 05:40:45;;;;;;;47.10;29.13;;;13.50;99.90;;;;;;4968454;28;20561;-70
2022/05/06 05:48:19;;;;;;;47.35;28.85;;;13.60;99.90;;;;;;4967422;28;20027;-70
2022/05/06 05:48:41;;;;;;;45.60;29.27;;;13.60;99.90;;;;;;4968603;28;20092;-70
2022/05/06 05:51:07;;;;;;;46.42;30.00;;;13.70;99.90;;;;;;4969410;28;20015;-70
2022/05/06 05:53:33;;;;;;;47.88;29.45;;;13.60;99.90;;;;;;4969036;28;20030;-70
2022/05/06 05:55:59;;;;;;;53.60;31.45;;;13.60;99.90;;;;;;4969777;28;20021;-69
2022/05/06 05:58:25;;;;;;;44.67;28.77;;;13.60;99.90;;;;;;4967328;28;20430;-70
2022/05/06 06:00:51;;;;;;;53.00;31.75;;;13.70;99.90;;;;;;4968044;28;20121;-70
2022/05/06 06:03:16;;;;;;;49.95;31.70;;;13.80;99.90;;;;;;4962852;28;20444;-70
2022/05/06 06:05:42;;;;;;;54.03;31.23;;;13.80;99.90;;;;;;4964631;28;20031;-70
2022/05/06 06:08:07;;;;;;;53.45;32.17;;;13.80;99.90;;;;;;4961781;28;20391;-69
2022/05/06 06:10:33;;;;;;;47.55;30.10;;;13.80;99.90;;;;;;4964669;28;20077;-69
2022/05/06 06:13:02;;;;;;;50.15;30.08;;;13.80;99.90;;;;;;4968324;28;20442;-69
2022/05/06 06:15:27;;;;;;;86.65;33.85;;;13.90;99.90;;;;;;4967757;28;20069;-69
2022/05/06 06:17:53;;;;;;;65.05;34.65;;;13.90;99.90;;;;;;4968329;28;20384;-69
2022/05/06 06:20:21;;;;;;;76.75;36.33;;;14.00;99.90;;;;;;4967581;28;20023;-69
2022/05/06 06:22:47;;;;;;;108.28;38.88;;;14.00;99.90;;;;;;4962967;28;20035;-69
2022/05/06 06:25:13;;;;;;;62.95;35.42;;;14.00;99.90;;;;;;4966824;28;20392;-69
2022/05/06 06:27:38;;;;;;;55.88;33.83;;;14.00;99.90;;;;;;4968989;28;20035;-69
2022/05/06 06:30:05;;;;;;;54.22;33.17;;;14.00;99.90;;;;;;4963308;28;20030;-69
2022/05/06 06:32:30;;;;;;;54.28;31.95;;;14.00;99.90;;;;;;4967354;28;20042;-69
2022/05/06 06:34:56;;;;;;;53.70;30.65;;;13.90;99.90;;;;;;4970456;28;20027;-69
2022/05/06 06:37:24;;;;;;;50.20;31.10;;;13.90;99.90;;;;;;4968368;28;20079;-69
2022/05/06 06:39:50;;;;;;;48.90;30.65;;;14.00;99.90;;;;;;4967108;28;20045;-69
2022/05/06 06:42:15;;;;;;;49.05;29.90;;;13.90;99.90;;;;;;4968376;28;20471;-69
2022/05/06 06:44:41;;;;;;;51.90;31.30;;;14.00;99.90;;;;;;4969415;28;20035;-69
2022/05/06 06:47:10;;;;;;;55.60;31.83;;;14.10;99.90;;;;;;4969484;28;20411;-69
2022/05/06 06:49:36;;;;;;;56.78;32.70;;;14.10;99.90;;;;;;4965018;28;20046;-69
2022/05/06 06:52:04;;;;;;;49.83;30.70;;;14.10;99.90;;;;;;4964010;28;20047;-68
2022/05/06 06:54:29;;;;;;;55.13;33.15;;;14.10;99.90;;;;;;4967585;28;20023;-68
2022/05/06 06:56:55;;;;;;;52.58;31.52;;;14.20;99.90;;;;;;4960812;28;20106;-68
2022/05/06 06:59:20;;;;;;;52.47;31.05;;;14.20;99.90;;;;;;4969019;28;20164;-70
2022/05/06 07:01:46;;;;;;;49.22;30.83;;;14.10;99.90;;;;;;4965065;28;20039;-68
2022/05/06 07:04:12;;;;;;;54.40;32.00;;;14.10;99.90;;;;;;4968995;28;20031;-69
2022/05/06 07:12:06;;;;;;;60.20;35.15;;;14.20;99.90;;;;;;4960327;28;20041;-69
2022/05/06 07:14:33;;;;;;;54.00;31.92;;;14.30;99.90;;;;;;4962111;28;20034;-69
2022/05/06 07:16:59;;;;;;;62.67;34.72;;;14.30;99.90;;;;;;4962970;28;20026;-68
2022/05/06 07:19:24;;;;;;;58.40;36.08;;;14.20;99.90;;;;;;4965996;28;20110;-68
2022/05/06 07:21:51;;;;;;;61.22;35.72;;;14.20;99.90;;;;;;4961243;28;20046;-67
2022/05/06 07:24:18;;;;;;;65.07;36.63;;;14.30;99.90;;;;;;4968994;28;20023;-69
2022/05/06 07:26:43;;;;;;;66.80;37.60;;;14.40;99.90;;;;;;4969293;28;20479;-69
2022/05/06 07:29:09;;;;;;;65.38;37.95;;;14.50;99.90;;;;;;4968792;28;20030;-69
2022/05/06 07:31:35;;;;;;;70.47;37.85;;;14.50;99.90;;;;;;4964926;28;20035;-69
2022/05/06 07:34:00;;;;;;;71.95;40.80;;;14.60;99.90;;;;;;4966392;28;20019;-69
2022/05/06 07:36:26;;;;;;;76.53;40.63;;;14.50;99.90;;;;;;4966298;28;20061;-69
2022/05/06 07:38:52;;;;;;;75.03;40.72;;;14.40;99.90;;;;;;4961796;28;20031;-69
2022/05/06 07:41:18;;;;;;;75.90;41.08;;;14.40;99.90;;;;;;4965958;28;20038;-69
2022/05/06 07:43:43;;;;;;;77.50;42.75;;;14.50;99.90;;;;;;4968232;28;20391;-69
2022/05/06 07:46:09;;;;;;;73.00;42.00;;;14.60;99.90;;;;;;4973652;28;20099;-68
2022/05/06 07:48:38;;;;;;;80.38;42.17;;;14.70;99.90;;;;;;4969368;28;20494;-69
2022/05/06 07:51:05;;;;;;;78.53;43.08;;;14.70;99.90;;;;;;4967264;28;20033;-69
2022/05/06 07:53:30;;;;;;;91.00;46.97;;;14.80;99.90;;;;;;4965517;28;20029;-69
2022/05/06 07:55:56;;;;;;;84.38;46.42;;;14.90;99.90;;;;;;4967726;28;20105;-69
2022/05/06 07:58:22;;;;;;;90.05;48.22;;;15.00;99.90;;;;;;4966031;28;20031;-69
2022/05/06 08:00:50;;;;;;;88.35;47.80;;;14.90;99.90;;;;;;4964216;28;20034;-69
2022/05/06 08:06:02;;;;;;;91.28;50.00;;;15.00;99.90;;;;;;4968384;28;20041;-69
2022/05/06 08:08:28;;;;;;;94.50;49.10;;;15.10;99.90;;;;;;4966932;28;20131;-69
2022/05/06 08:10:54;;;;;;;88.60;48.17;;;15.00;99.90;;;;;;4967757;28;20039;-69
2022/05/06 08:13:20;;;;;;;87.43;47.85;;;15.10;99.90;;;;;;4957742;28;20096;-69
2022/05/06 08:15:47;;;;;;;85.35;50.13;;;15.20;99.90;;;;;;4963566;28;20422;-69
2022/05/06 08:18:13;;;;;;;88.57;47.17;;;15.20;99.90;;;;;;4964185;28;20475;-69
2022/05/06 08:20:39;;;;;;;94.47;50.67;;;15.20;99.90;;;;;;4965129;28;20042;-69
2022/05/06 08:23:06;;;;;;;85.80;51.00;;;15.20;99.90;;;;;;4968575;28;20019;-69
2022/05/06 08:25:32;;;;;;;85.03;49.80;;;15.30;99.90;;;;;;4963385;28;20487;-69
2022/05/06 08:27:57;;;;;;;91.70;49.92;;;15.40;99.90;;;;;;4966916;28;20023;-69
2022/05/06 08:30:24;;;;;;;87.47;49.40;;;15.40;99.90;;;;;;4962457;28;20383;-69
2022/05/06 08:32:51;;;;;;;85.13;50.50;;;15.40;99.90;;;;;;4963548;28;20084;-69
2022/05/06 08:35:17;;;;;;;89.25;51.80;;;15.30;99.90;;;;;;4954036;28;20367;-69
2022/05/06 08:37:44;;;;;;;84.82;50.40;;;15.30;99.90;;;;;;4955822;28;20019;-69
2022/05/06 08:40:23;;;;;;;80.30;46.85;;;15.40;99.90;;;;;;4966572;28;20066;-69
2022/05/06 08:42:49;;;;;;;83.30;46.90;;;15.40;99.90;;;;;;4963596;28;20038;-69
2022/05/06 08:50:52;;;;;;;76.63;46.60;;;15.60;99.90;;;;;;4967649;28;20042;-69
2022/05/06 08:53:22;;;;;;;88.47;48.45;;;15.70;99.90;;;;;;4964974;28;20073;-69
2022/05/06 08:55:49;;;;;;;83.55;49.65;;;15.70;99.90;;;;;;4964859;28;20031;-69
2022/05/06 08:58:16;;;;;;;77.07;46.45;;;15.70;99.90;;;;;;4967447;28;20059;-69
2022/05/06 09:00:42;;;;;;;78.35;47.22;;;15.70;99.90;;;;;;4960804;28;20116;-69
2022/05/06 09:03:08;;;;;;;81.95;49.60;;;15.60;99.90;;;;;;4963189;28;20035;-69
2022/05/06 09:05:53;;;;;;;88.15;50.88;;;15.70;99.90;;;;;;4959241;28;20019;-69
2022/05/06 09:08:20;;;;;;;77.38;47.35;;;15.90;99.90;;;;;;4963178;28;20489;-69
2022/05/06 09:10:59;;;;;;;89.78;50.33;;;16.00;99.90;;;;;;4960853;28;20455;-69
2022/05/06 09:13:26;;;;;;;85.82;49.53;;;16.00;99.90;;;;;;4963824;28;20062;-69
2022/05/06 09:18:37;;;;;;;81.13;47.88;;;16.30;99.90;;;;;;4969920;28;20037;-69
2022/05/06 09:21:13;;;;;;;81.30;46.65;;;16.40;99.90;;;;;;4976046;28;20034;-69
2022/05/06 09:23:39;;;;;;;83.55;48.60;;;16.50;99.90;;;;;;4967219;28;20553;-69
2022/05/06 09:26:15;;;;;;;79.93;46.92;;;16.60;99.90;;;;;;4969047;28;20062;-69
2022/05/06 09:28:41;;;;;;;86.18;50.17;;;16.50;99.90;;;;;;4965600;28;20027;-69
2022/05/06 09:31:09;;;;;;;78.32;46.00;;;16.50;99.90;;;;;;4978261;28;20057;-68
2022/05/06 09:33:41;;;;;;;86.25;52.47;;;16.60;99.90;;;;;;4970194;28;20041;-68
2022/05/06 09:36:26;;;;;;;80.10;48.08;;;16.70;99.90;;;;;;4969784;28;20023;-69
2022/05/06 09:39:10;;;;;;;77.28;47.85;;;16.90;99.90;;;;;;4965186;28;20025;-68
2022/05/06 09:41:40;;;;;;;78.65;45.72;;;17.00;99.90;;;;;;4968454;28;20121;-68
2022/05/06 09:44:08;;;;;;;77.80;46.10;;;17.20;99.90;;;;;;4970229;28;20062;-68
2022/05/06 09:46:34;;;;;;;77.32;46.42;;;17.50;99.90;;;;;;4969635;28;20027;-68
2022/05/06 09:49:02;;;;;;;76.22;48.03;;;17.60;99.90;;;;;;4970455;28;20037;-68
2022/05/06 09:51:35;;;;;;;75.00;47.15;;;17.60;99.90;;;;;;4970074;28;20027;-69
2022/05/06 09:54:05;;;;;;;75.90;47.55;;;17.70;99.90;;;;;;4968480;28;20034;-69
2022/05/06 09:56:31;;;;;;;74.75;47.30;;;17.90;99.90;;;;;;4968325;28;20106;-68
2022/05/06 09:58:59;;;;;;;73.00;45.72;;;18.10;99.90;;;;;;4967807;28;20543;-68
2022/05/06 10:01:25;;;;;;;77.53;48.53;;;18.20;99.90;;;;;;4968631;28;20046;-69
2022/05/06 10:03:52;;;;;;;85.80;50.70;;;18.50;99.90;;;;;;4970408;28;20543;-68
2022/05/06 10:06:22;;;;;;;95.00;56.78;;;18.60;99.90;;;;;;4966114;28;20501;-68
2022/05/06 10:08:51;;;;;;;96.35;56.60;;;18.70;99.90;;;;;;4969988;28;20023;-68
2022/05/06 10:11:23;;;;;;;74.57;46.30;;;18.90;99.90;;;;;;4966886;28;20178;-69
2022/05/06 10:13:52;;;;;;;75.10;47.15;;;19.10;99.90;;;;;;4964586;28;20031;-69
2022/05/06 10:16:18;;;;;;;84.75;47.15;;;19.10;99.90;;;;;;4969073;28;20526;-67
2022/05/06 10:18:44;;;;;;;75.93;47.67;;;19.40;99.90;;;;;;4969429;28;20035;-69
2022/05/06 10:21:14;;;;;;;81.60;49.22;;;19.40;99.90;;;;;;4969228;28;20038;-68
2022/05/06 10:23:54;;;;;;;84.30;50.80;;;19.50;99.90;;;;;;4968361;28;20018;-69
2022/05/06 10:26:46;;;;;;;79.53;50.40;;;19.60;99.90;;;;;;5053306;28;20126;-69
2022/05/06 10:32:55;;;;;;;92.78;54.92;;;20.00;99.90;;;;;;4965476;28;20042;-69
2022/05/06 10:35:38;;;;;;;78.93;50.53;;;20.00;99.90;;;;;;4969916;28;20703;-67
2022/05/06 10:38:24;;;;;;;77.65;48.78;;;20.30;99.90;;;;;;4968681;28;20433;-69
2022/05/06 10:41:02;;;;;;;78.28;48.95;;;20.20;99.90;;;;;;4961525;28;20038;-69
2022/05/06 10:43:40;;;;;;;72.88;46.90;;;20.50;99.90;;;;;;4964953;28;20053;-69
2022/05/06 10:46:09;;;;;;;72.95;47.25;;;20.50;99.90;;;;;;4966977;28;20051;-69
2022/05/06 10:48:35;;;;;;;67.30;44.45;;;20.70;99.90;;;;;;4967586;28;20030;-69
2022/05/06 10:51:21;;;;;;;72.15;44.13;;;20.40;99.90;;;;;;4965923;28;20356;-70
2022/05/06 10:53:47;;;;;;;64.95;39.50;;;20.60;99.90;;;;;;4962075;28;20070;-69
2022/05/06 10:56:14;;;;;;;65.15;41.95;;;20.80;99.90;;;;;;4967803;28;20050;-69
2022/05/06 10:58:40;;;;;;;64.25;40.08;;;20.90;99.90;;;;;;4967623;28;20475;-69
2022/05/06 11:01:06;;;;;;;64.25;41.80;;;20.80;99.90;;;;;;4964813;28;20106;-70
2022/05/06 11:03:31;;;;;;;59.70;41.55;;;21.00;99.90;;;;;;4960966;28;20122;-70
2022/05/06 11:05:57;;;;;;;61.53;40.83;;;21.20;99.90;;;;;;4964199;28;20038;-69
2022/05/06 11:08:33;;;;;;;56.20;36.55;;;21.40;99.90;;;;;;4963918;28;20073;-69
2022/05/06 11:10:59;;;;;;;56.88;38.22;;;21.60;99.90;;;;;;4964964;28;20045;-69
2022/05/06 11:13:25;;;;;;;57.40;35.00;;;21.60;99.90;;;;;;4965157;28;20480;-69
2022/05/06 11:15:52;;;;;;;56.03;37.95;;;21.70;99.90;;;;;;4963208;28;20468;-69
2022/05/06 11:18:19;;;;;;;60.05;39.85;;;21.70;99.90;;;;;;4968793;28;20027;-70
2022/05/06 11:20:45;;;;;;;55.35;37.20;;;21.80;99.90;;;;;;4966116;28;20117;-70
2022/05/06 11:23:13;;;;;;;50.90;35.47;;;21.70;99.90;;;;;;4974296;28;20533;-71
2022/05/06 11:25:42;;;;;;;53.72;36.65;;;21.70;99.90;;;;;;4968275;28;20054;-69
2022/05/06 11:28:16;;;;;;;48.92;33.58;;;21.70;99.90;;;;;;4967124;28;20030;-70
2022/05/06 11:30:49;;;;;;;45.63;31.42;;;21.90;99.90;;;;;;4968052;28;20109;-69
2022/05/06 11:33:22;;;;;;;;;;;22.00;99.90;;;;;;4966086;28;20030;-71
2022/05/06 11:35:50;;;;;;;36.85;25.30;;;22.00;99.70;;;;;;4963395;28;20352;-69
2022/05/06 11:38:42;;;;;;;32.92;24.38;;;21.80;99.10;;;;;;4968987;28;20025;-70
2022/05/06 11:41:10;;;;;;;31.40;20.98;;;22.00;99.90;;;;;;4968630;28;20042;-69
2022/05/06 11:43:36;;;;;;;35.95;24.08;;;21.90;99.40;;;;;;4969044;28;20487;-70
2022/05/06 11:48:47;;;;;;;38.75;26.25;;;22.40;99.90;;;;;;4967692;28;20048;-70
2022/05/06 11:51:39;;;;;;;36.13;24.25;;;22.50;97.80;;;;;;4964224;28;20051;-70
2022/05/06 11:54:06;;;;;;;32.67;23.52;;;22.50;97.60;;;;;;4957355;28;20123;-70
2022/05/06 11:56:33;;;;;;;35.95;24.35;;;22.70;98.40;;;;;;4969631;28;20105;-70
2022/05/06 11:58:59;;;;;;;38.50;27.20;;;22.60;97.50;;;;;;4969492;28;20034;-70
2022/05/06 12:01:34;;;;;;;29.55;21.58;;;22.40;97.40;;;;;;4967390;28;20041;-69
2022/05/06 12:04:01;;;;;;;35.90;24.27;;;22.50;98.40;;;;;;4976694;28;20027;-70
2022/05/06 12:06:27;;;;;;;33.67;24.42;;;22.50;97.80;;;;;;4964600;28;20033;-70
2022/05/06 12:09:09;;;;;;;22.73;16.00;;;22.80;97.40;;;;;;4969433;28;20037;-69
2022/05/06 12:11:35;;;;;;;36.40;22.08;;;23.00;97.00;;;;;;4960552;28;20043;-70
2022/05/06 12:14:08;;;;;;;35.40;24.23;;;23.30;97.60;;;;;;4967300;28;20062;-69
2022/05/06 12:16:34;;;;;;;42.45;29.13;;;23.30;96.70;;;;;;4967001;28;20069;-70
2022/05/06 12:19:00;;;;;;;33.47;24.95;;;23.30;95.70;;;;;;4968745;28;20030;-70
2022/05/06 12:21:27;;;;;;;24.45;18.77;;;23.30;95.80;;;;;;4964281;28;20051;-70
2022/05/06 12:23:57;;;;;;;31.52;22.90;;;23.30;95.10;;;;;;5050995;28;20383;-69
2022/05/06 12:26:28;;;;;;;31.30;22.77;;;23.30;94.60;;;;;;4969511;28;20023;-69
2022/05/06 12:28:53;;;;;;;25.40;18.08;;;23.40;95.60;;;;;;4969139;28;20031;-70
2022/05/06 12:31:29;;;;;;;29.13;22.25;;;23.40;95.10;;;;;;4964325;28;20081;-69
2022/05/06 12:34:09;;;;;;;28.83;21.08;;;23.30;93.80;;;;;;4968630;28;20092;-69
2022/05/06 12:36:36;;;;;;;28.30;21.58;;;23.10;94.60;;;;;;4963051;28;20062;-69
2022/05/06 12:39:19;;;;;;;27.92;20.08;;;23.30;95.20;;;;;;4964596;28;20426;-70
2022/05/06 12:41:45;;;;;;;22.92;16.55;;;23.20;94.30;;;;;;4963549;28;20449;-70
2022/05/06 12:44:23;;;;;;;21.63;12.88;;;23.10;93.20;;;;;;4968650;28;20051;-70
2022/05/06 12:46:50;;;;;;;18.50;10.88;;;23.40;94.10;;;;;;4964907;28;20034;-71
2022/05/06 12:52:04;;;;;;;24.83;18.33;;;23.90;94.30;;;;;;4967455;28;20069;-72
2022/05/06 12:54:30;;;;;;;23.75;18.92;;;24.10;94.60;;;;;;4969399;28;20038;-71
2022/05/06 12:56:56;;;;;;;19.38;15.43;;;24.20;94.70;;;;;;4970666;28;20029;-72
2022/05/06 12:59:22;;;;;;;19.02;14.00;;;24.30;93.80;;;;;;4972580;28;20430;-72
2022/05/06 13:01:48;;;;;;;18.10;14.48;;;24.30;92.40;;;;;;4966958;28;20045;-71
2022/05/06 13:04:14;;;;;;;19.58;14.35;;;24.10;92.90;;;;;;4967747;28;20097;-71
2022/05/06 13:06:40;;;;;;;19.33;14.18;;;24.30;94.00;;;;;;4967258;28;20113;-71
2022/05/06 13:09:05;;;;;;;18.48;14.18;;;24.40;92.60;;;;;;4961998;28;20390;-69
2022/05/06 13:11:31;;;;;;;15.75;12.32;;;24.40;93.80;;;;;;4967998;28;20027;-69